Delta Virtual Airport Information Service

Lincoln Airport

ICAO: KLNK Country: United States
Latitude: 40.851 Longitude: -96.7592
Latest Arrival : DAC5192 (KABQ-KLNK) Latest Departure : DAC5192 (KLNK-KMLI)


WX CaptureLIVE
Data provided by noaa.gov | Fetched at 10:20:59

METAR : KLNK 231607Z 13005KT 3SM -RA BR BKN030 BKN040 OVC075 02/01 A3026 RMK AO2 P0003 T00220006

TAF : KLNK 231519Z 2315/2412 16013KT P6SM VCSH BKN025 OVC050 TEMPO 2315/2318 4SM RA BR OVC015 FM231800 15015G25KT P6SM BKN025 OVC050 TEMPO 2318/2320 6SM -SHRA BR OVC040 FM232100 15017G27KT P6SM OVC020 FM240200 14018G26KT 6SM -RA BR OVC010


Runway Data for KLNK
Data provided by openaviationdata.com

Runway ID Mag Var Hdg Length Elevation Surface ILS Freq ILS Id ILS Slope
14 5 139° 8649 ft 1183 ft Asphalt -- -- --
17 5 174° 5403 ft 1183 ft Asphalt -- -- --
18 5 174° 12910 ft 1183 ft Asphalt 111.1 IOCZ 3
32 5 319° 8649 ft 1183 ft Asphalt -- -- --
35 5 354° 5403 ft 1183 ft Asphalt -- -- --
36 5 354° 12910 ft 1183 ft Asphalt 109.9 ILNK 3

Lincoln Airport, United States
Use only for reference purposes



Not for navigational purposes.